createdAt,value
2023-04-18T00:01:02.145Z,8.90
2023-04-18T00:03:28.673Z,10.35
2023-04-18T00:05:55.228Z,10.23
2023-04-18T00:08:21.547Z,8.75
2023-04-18T00:10:47.948Z,9.18
2023-04-18T00:13:14.341Z,9.20
2023-04-18T00:15:40.676Z,7.95
2023-04-18T00:18:07.017Z,8.00
2023-04-18T00:20:33.446Z,8.07
2023-04-18T00:22:59.807Z,8.77
2023-04-18T00:25:26.131Z,8.15
2023-04-18T00:27:52.742Z,7.93
2023-04-18T00:30:19.088Z,7.85
2023-04-18T00:32:45.465Z,7.32
2023-04-18T00:35:11.892Z,6.95
2023-04-18T00:37:38.219Z,7.55
2023-04-18T00:40:04.634Z,8.13
2023-04-18T00:42:31.032Z,7.85
2023-04-18T00:44:57.377Z,8.43
2023-04-18T00:47:23.811Z,8.70
2023-04-18T00:49:50.777Z,8.55
2023-04-18T00:52:17.134Z,7.63
2023-04-18T00:54:43.469Z,6.80
2023-04-18T00:57:10.522Z,7.25
2023-04-18T00:59:37.149Z,6.38
2023-04-18T01:02:03.601Z,7.82
2023-04-18T01:04:30.368Z,8.20
2023-04-18T01:06:56.757Z,8.50
2023-04-18T01:09:23.080Z,7.65
2023-04-18T01:11:51.641Z,8.82
2023-04-18T01:14:17.968Z,7.50
2023-04-18T01:16:44.294Z,7.95
2023-04-18T01:19:10.976Z,6.60
2023-04-18T01:21:37.596Z,7.72
2023-04-18T01:24:04.342Z,7.20
2023-04-18T01:26:30.749Z,8.15
2023-04-18T01:28:57.125Z,6.90
2023-04-18T01:31:23.447Z,6.53
2023-04-18T01:33:49.932Z,8.15
2023-04-18T01:36:16.464Z,7.65
2023-04-18T01:38:42.799Z,9.65
2023-04-18T01:41:09.175Z,7.45
2023-04-18T01:43:35.492Z,6.90
2023-04-18T01:46:03.222Z,7.13
2023-04-18T01:48:29.576Z,7.22
2023-04-18T01:50:55.936Z,8.20
2023-04-18T01:53:22.257Z,7.03
2023-04-18T01:55:48.767Z,6.80
2023-04-18T01:58:15.164Z,6.57
2023-04-18T02:00:41.576Z,7.18
2023-04-18T02:03:08.096Z,6.70
2023-04-18T02:05:34.546Z,6.25
2023-04-18T02:08:00.872Z,6.30
2023-04-18T02:10:27.249Z,5.68
2023-04-18T02:12:53.610Z,6.32
2023-04-18T02:15:19.943Z,5.32
2023-04-18T02:17:46.361Z,5.10
2023-04-18T02:20:12.702Z,5.82
2023-04-18T02:22:39.041Z,5.45
2023-04-18T02:25:05.491Z,6.20
2023-04-18T02:27:31.827Z,5.85
2023-04-18T02:29:58.166Z,5.50
2023-04-18T02:32:24.772Z,6.25
2023-04-18T02:34:51.184Z,4.50
2023-04-18T02:37:17.523Z,4.63
2023-04-18T02:39:43.892Z,6.15
2023-04-18T02:42:10.211Z,4.75
2023-04-18T02:44:36.536Z,6.10
2023-04-18T02:47:02.918Z,5.22
2023-04-18T02:49:29.517Z,4.47
2023-04-18T02:51:55.917Z,6.43
2023-04-18T02:54:22.380Z,4.88
2023-04-18T02:56:54.703Z,4.38
2023-04-18T02:59:24.933Z,5.28
2023-04-18T03:02:06.222Z,5.50
2023-04-18T03:04:34.393Z,4.30
2023-04-18T03:07:03.528Z,4.95
2023-04-18T03:09:33.723Z,4.00
2023-04-18T03:12:04.842Z,4.32
2023-04-18T03:14:31.976Z,4.57
2023-04-18T03:16:59.220Z,4.00
2023-04-18T03:19:30.244Z,4.10
2023-04-18T03:21:59.801Z,3.83
2023-04-18T03:24:27.007Z,4.20
2023-04-18T03:26:57.299Z,4.15
2023-04-18T03:29:25.365Z,4.95
2023-04-18T03:31:51.847Z,4.57
2023-04-18T03:34:18.260Z,4.82
2023-04-18T03:36:46.597Z,8.70
2023-04-18T03:39:14.366Z,7.47
2023-04-18T03:41:41.152Z,8.40
2023-04-18T03:44:07.848Z,6.93
2023-04-18T03:46:36.543Z,8.52
2023-04-18T03:49:04.284Z,6.88
2023-04-18T03:51:30.674Z,4.93
2023-04-18T03:53:57.143Z,9.57
2023-04-18T03:56:23.669Z,5.07
2023-04-18T03:58:52.059Z,8.35
2023-04-18T04:01:20.250Z,7.28
2023-04-18T04:03:46.858Z,6.70
2023-04-18T04:06:13.755Z,9.63
2023-04-18T04:08:40.216Z,7.38
2023-04-18T04:11:06.863Z,13.55
2023-04-18T04:13:33.334Z,10.43
2023-04-18T04:15:59.874Z,6.72
2023-04-18T04:18:26.510Z,8.98
2023-04-18T04:20:53.138Z,12.35
2023-04-18T04:23:31.865Z,7.75
2023-04-18T04:25:58.520Z,11.70
2023-04-18T04:28:38.478Z,9.13
2023-04-18T04:31:06.205Z,11.50
2023-04-18T04:33:32.680Z,10.48
2023-04-18T04:36:01.881Z,8.60
2023-04-18T04:38:31.382Z,6.40
2023-04-18T04:40:58.453Z,19.70
2023-04-18T04:43:25.334Z,15.50
2023-04-18T04:45:52.233Z,10.40
2023-04-18T04:48:25.544Z,13.73
2023-04-18T04:50:53.362Z,10.85
2023-04-18T04:53:19.869Z,25.70
2023-04-18T04:55:46.559Z,22.00
2023-04-18T04:58:13.398Z,20.80
2023-04-18T05:01:03.124Z,20.55
2023-04-18T05:03:31.604Z,22.13
2023-04-18T05:05:58.272Z,27.63
2023-04-18T05:08:24.714Z,33.80
2023-04-18T05:10:51.344Z,37.88
2023-04-18T05:13:17.845Z,25.05
2023-04-18T05:15:44.341Z,20.27
2023-04-18T05:18:10.856Z,19.73
2023-04-18T05:20:37.264Z,19.70
2023-04-18T05:23:03.694Z,22.08
2023-04-18T05:25:30.186Z,17.52
2023-04-18T05:27:56.694Z,13.30
2023-04-18T05:30:23.115Z,13.48
2023-04-18T05:32:49.695Z,13.80
2023-04-18T05:35:16.172Z,18.58
2023-04-18T05:37:42.593Z,15.73
2023-04-18T05:40:09.102Z,12.93
2023-04-18T05:42:35.611Z,11.70
2023-04-18T05:45:02.017Z,9.15
2023-04-18T05:47:28.652Z,9.38
2023-04-18T05:49:55.133Z,9.50
2023-04-18T05:52:21.559Z,10.77
2023-04-18T05:54:47.941Z,11.73
2023-04-18T05:57:14.327Z,11.05
2023-04-18T05:59:40.748Z,18.92
2023-04-18T06:02:07.214Z,10.82
2023-04-18T06:04:33.696Z,14.13
2023-04-18T06:07:00.130Z,18.05
2023-04-18T06:09:26.544Z,12.32
2023-04-18T06:11:52.932Z,11.93
2023-04-18T06:14:19.324Z,8.73
2023-04-18T06:16:45.707Z,10.48
2023-04-18T06:19:12.038Z,8.70
2023-04-18T06:21:38.441Z,10.85
2023-04-18T06:24:04.838Z,12.48
2023-04-18T06:26:31.173Z,9.05
2023-04-18T06:28:57.606Z,8.82
2023-04-18T06:31:24.069Z,10.38
2023-04-18T06:33:50.496Z,9.48
2023-04-18T06:36:17.036Z,10.27
2023-04-18T06:38:43.447Z,10.55
2023-04-18T06:41:09.798Z,10.10
2023-04-18T06:43:36.150Z,12.77
2023-04-18T06:46:02.554Z,9.35
2023-04-18T06:48:28.916Z,8.70
2023-04-18T06:50:55.271Z,12.15
2023-04-18T06:53:21.654Z,10.90
2023-04-18T06:55:48.028Z,10.90
2023-04-18T06:58:14.366Z,16.90
2023-04-18T07:00:40.772Z,13.50
2023-04-18T07:03:08.141Z,13.45
2023-04-18T07:05:36.706Z,12.77
2023-04-18T07:08:03.122Z,11.30
2023-04-18T07:10:29.512Z,17.77
2023-04-18T07:12:55.878Z,12.38
2023-04-18T07:15:22.304Z,12.07
2023-04-18T07:17:48.704Z,10.38
2023-04-18T07:20:15.067Z,11.70
2023-04-18T07:22:41.467Z,16.40
2023-04-18T07:25:07.852Z,12.98
2023-04-18T07:27:34.223Z,9.02
2023-04-18T07:30:00.657Z,11.40
2023-04-18T07:32:27.040Z,8.05
2023-04-18T07:34:53.402Z,7.93
2023-04-18T07:37:19.822Z,14.50
2023-04-18T07:39:46.714Z,12.25
2023-04-18T07:42:13.070Z,10.05
2023-04-18T07:44:39.482Z,10.05
2023-04-18T07:47:05.905Z,14.60
2023-04-18T07:49:32.232Z,19.55
2023-04-18T07:51:58.678Z,45.35
2023-04-18T07:54:25.013Z,24.52
2023-04-18T07:56:51.375Z,15.38
2023-04-18T07:59:17.771Z,14.93
2023-04-18T08:01:44.144Z,13.30
2023-04-18T08:04:10.696Z,9.95
2023-04-18T08:06:37.200Z,11.93
2023-04-18T08:09:03.584Z,9.20
2023-04-18T08:11:29.968Z,8.60
2023-04-18T08:13:56.401Z,9.27
2023-04-18T08:16:22.886Z,9.50
2023-04-18T08:18:49.290Z,9.82
2023-04-18T08:21:15.713Z,8.60
2023-04-18T08:23:42.076Z,8.25
2023-04-18T08:26:08.392Z,8.30
2023-04-18T08:28:34.893Z,8.80
2023-04-18T08:31:01.240Z,7.43
2023-04-18T08:33:27.613Z,6.55
2023-04-18T08:35:54.125Z,8.48
2023-04-18T08:38:20.494Z,11.65
2023-04-18T08:40:46.839Z,21.45
2023-04-18T08:43:13.240Z,13.95
2023-04-18T08:45:39.639Z,14.30
2023-04-18T08:48:06.064Z,16.10
2023-04-18T08:50:32.533Z,14.32
2023-04-18T08:52:58.951Z,12.75
2023-04-18T08:55:25.362Z,10.23
2023-04-18T08:57:51.797Z,12.40
2023-04-18T09:00:18.148Z,16.95
2023-04-18T09:02:44.660Z,9.07
2023-04-18T09:05:11.508Z,13.02
2023-04-18T09:07:37.903Z,13.38
2023-04-18T09:10:04.278Z,9.68
2023-04-18T09:12:30.683Z,7.50
2023-04-18T09:14:57.041Z,9.60
2023-04-18T09:17:23.411Z,10.27
2023-04-18T09:19:49.848Z,7.68
2023-04-18T09:22:16.223Z,15.02
2023-04-18T09:24:42.597Z,6.85
2023-04-18T09:27:09.000Z,7.82
2023-04-18T09:29:35.375Z,12.75
2023-04-18T09:32:01.804Z,10.45
2023-04-18T09:34:28.320Z,9.32
2023-04-18T09:36:54.753Z,9.43
2023-04-18T09:39:21.130Z,9.68
2023-04-18T09:41:47.542Z,83.43
2023-04-18T09:44:15.385Z,32.00
2023-04-18T09:46:42.950Z,23.63
2023-04-18T09:49:11.183Z,25.98
2023-04-18T09:51:37.712Z,50.60
2023-04-18T09:54:04.076Z,266.55
2023-04-18T09:56:30.496Z,168.98
2023-04-18T09:58:56.865Z,137.63
2023-04-18T10:01:23.350Z,100.40
2023-04-18T10:03:49.915Z,98.30
2023-04-18T10:06:16.389Z,74.50
2023-04-18T10:08:42.802Z,60.65
2023-04-18T10:11:09.213Z,45.35
2023-04-18T10:13:35.673Z,42.20
2023-04-18T10:16:02.090Z,42.05
2023-04-18T10:18:28.549Z,26.30
2023-04-18T10:20:54.918Z,26.42
2023-04-18T10:23:21.290Z,23.33
2023-04-18T10:25:47.716Z,18.95
2023-04-18T10:28:14.079Z,15.68
2023-04-18T10:30:40.462Z,14.48
2023-04-18T10:33:10.575Z,16.35
2023-04-18T10:35:44.661Z,16.50
2023-04-18T10:38:11.080Z,16.23
2023-04-18T10:40:37.503Z,12.25
2023-04-18T10:43:03.851Z,13.70
2023-04-18T10:45:30.274Z,8.02
2023-04-18T10:47:57.685Z,11.50
2023-04-18T10:50:24.184Z,8.95
2023-04-18T10:52:50.588Z,8.32
2023-04-18T10:55:17.013Z,8.38
2023-04-18T10:57:43.477Z,6.40
2023-04-18T11:00:09.846Z,7.28
2023-04-18T11:02:36.350Z,9.07
2023-04-18T11:05:02.789Z,14.32
2023-04-18T11:07:30.087Z,12.00
2023-04-18T11:09:56.473Z,8.02
2023-04-18T11:12:22.861Z,12.25
2023-04-18T11:14:51.249Z,11.65
2023-04-18T11:17:17.624Z,10.02
2023-04-18T11:19:44.101Z,8.38
2023-04-18T11:22:10.512Z,9.15
2023-04-18T11:24:36.915Z,14.93
2023-04-18T11:27:03.291Z,7.20
2023-04-18T11:29:29.707Z,9.20
2023-04-18T11:31:58.279Z,15.90
2023-04-18T11:34:25.170Z,135.52
2023-04-18T11:36:51.574Z,137.57
2023-04-18T11:39:17.929Z,145.65
2023-04-18T11:41:44.292Z,92.20
2023-04-18T11:44:10.698Z,89.45
2023-04-18T11:46:37.120Z,60.95
2023-04-18T11:49:03.644Z,56.63
2023-04-18T11:51:30.083Z,49.85
2023-04-18T11:53:56.396Z,27.45
2023-04-18T11:56:22.735Z,24.02
2023-04-18T11:58:49.146Z,25.98
2023-04-18T12:01:15.629Z,14.10
2023-04-18T12:03:42.212Z,22.85
2023-04-18T12:06:08.743Z,13.27
2023-04-18T12:08:35.108Z,10.23
2023-04-18T12:11:01.549Z,10.60
2023-04-18T12:13:28.004Z,9.20
2023-04-18T12:15:54.381Z,9.05
2023-04-18T12:18:20.797Z,8.27
2023-04-18T12:20:47.234Z,7.43
2023-04-18T12:23:13.618Z,16.40
2023-04-18T12:25:40.055Z,12.25
2023-04-18T12:28:06.431Z,18.65
2023-04-18T12:30:33.390Z,34.33
2023-04-18T12:33:01.174Z,26.33
2023-04-18T12:35:27.579Z,19.65
2023-04-18T12:37:53.939Z,16.83
2023-04-18T12:40:20.364Z,14.25
2023-04-18T12:42:46.735Z,14.32
2023-04-18T12:45:13.080Z,6.38
2023-04-18T12:47:39.494Z,8.77
2023-04-18T12:50:05.987Z,6.88
2023-04-18T12:52:32.400Z,6.00
2023-04-18T12:54:58.743Z,9.10
2023-04-18T12:57:25.164Z,6.40
2023-04-18T12:59:51.598Z,9.00
2023-04-18T13:02:18.026Z,6.28
2023-04-18T13:04:44.512Z,12.20
2023-04-18T13:07:11.036Z,12.80
2023-04-18T13:09:37.414Z,11.35
2023-04-18T13:12:03.822Z,7.90
2023-04-18T13:14:30.271Z,14.13
2023-04-18T13:16:56.741Z,8.25
2023-04-18T13:19:23.147Z,12.00
2023-04-18T13:21:49.721Z,10.45
2023-04-18T13:24:16.118Z,35.70
2023-04-18T13:26:42.513Z,16.52
2023-04-18T13:29:08.862Z,7.28
2023-04-18T13:31:35.324Z,44.92
2023-04-18T13:34:01.742Z,25.50
2023-04-18T13:36:28.118Z,22.98
2023-04-18T13:38:55.041Z,17.17
2023-04-18T13:41:21.445Z,36.65
2023-04-18T13:43:47.808Z,22.33
2023-04-18T13:46:14.348Z,17.17
2023-04-18T13:48:40.750Z,22.90
2023-04-18T13:51:07.196Z,20.88
2023-04-18T13:53:33.653Z,13.63
2023-04-18T13:56:00.092Z,15.25
2023-04-18T13:58:26.453Z,10.70
2023-04-18T14:00:52.837Z,10.13
2023-04-18T14:03:19.536Z,13.63
2023-04-18T14:05:46.044Z,9.75
2023-04-18T14:08:12.495Z,7.20
2023-04-18T14:10:38.913Z,9.50
2023-04-18T14:13:05.254Z,9.43
2023-04-18T14:15:31.633Z,7.50
2023-04-18T14:17:58.170Z,5.93
2023-04-18T14:20:24.604Z,17.00
2023-04-18T14:22:53.018Z,13.63
2023-04-18T14:25:19.716Z,15.25
2023-04-18T14:27:46.134Z,9.40
2023-04-18T14:30:12.503Z,9.18
2023-04-18T14:32:38.951Z,10.73
2023-04-18T14:35:05.321Z,10.90
2023-04-18T14:37:33.169Z,8.05
2023-04-18T14:39:59.687Z,6.65
2023-04-18T14:42:26.105Z,9.73
2023-04-18T14:44:52.499Z,6.10
2023-04-18T14:47:18.922Z,6.03
2023-04-18T14:49:45.281Z,7.32
2023-04-18T14:52:11.714Z,6.40
2023-04-18T14:54:38.123Z,4.70
2023-04-18T14:57:04.559Z,7.75
2023-04-18T14:59:30.937Z,5.90
2023-04-18T15:01:57.433Z,5.30
2023-04-18T15:04:23.967Z,4.90
2023-04-18T15:06:50.509Z,5.38
2023-04-18T15:09:16.952Z,5.05
2023-04-18T15:11:43.317Z,4.45
2023-04-18T15:14:09.648Z,6.28
2023-04-18T15:16:36.072Z,5.03
2023-04-18T15:19:02.475Z,5.32
2023-04-18T15:21:28.852Z,5.40
2023-04-18T15:23:55.319Z,4.47
2023-04-18T15:26:21.772Z,5.35
2023-04-18T15:28:48.108Z,4.30
2023-04-18T15:31:14.486Z,6.90
2023-04-18T15:33:40.841Z,5.78
2023-04-18T15:36:07.182Z,4.90
2023-04-18T15:38:33.560Z,3.42
2023-04-18T15:40:59.925Z,5.03
2023-04-18T15:43:26.308Z,5.00
2023-04-18T15:45:52.838Z,4.82
2023-04-18T15:48:19.236Z,5.70
2023-04-18T15:50:45.687Z,4.03
2023-04-18T15:53:12.137Z,4.88
2023-04-18T15:55:38.618Z,3.75
2023-04-18T15:58:05.112Z,4.10
2023-04-18T16:00:31.565Z,5.07
2023-04-18T16:02:58.037Z,4.22
2023-04-18T16:05:24.489Z,4.75
2023-04-18T16:07:50.867Z,5.05
2023-04-18T16:10:17.331Z,3.40
2023-04-18T16:12:43.739Z,4.10
2023-04-18T16:15:10.124Z,3.85
2023-04-18T16:17:36.461Z,4.78
2023-04-18T16:20:02.922Z,4.45
2023-04-18T16:22:29.316Z,3.60
2023-04-18T16:24:55.776Z,3.20
2023-04-18T16:27:22.172Z,3.50
2023-04-18T16:29:48.559Z,3.90
2023-04-18T16:32:14.891Z,3.95
2023-04-18T16:34:41.245Z,3.70
2023-04-18T16:37:07.613Z,5.03
2023-04-18T16:39:33.919Z,5.28
2023-04-18T16:42:00.274Z,4.13
2023-04-18T16:44:26.640Z,3.58
2023-04-18T16:46:52.981Z,4.65
2023-04-18T16:49:19.507Z,3.58
2023-04-18T16:51:45.913Z,3.60
2023-04-18T16:54:12.448Z,4.47
2023-04-18T16:56:39.099Z,3.83
2023-04-18T16:59:05.469Z,4.25
2023-04-18T17:01:31.843Z,3.67
2023-04-18T17:03:58.421Z,4.13
2023-04-18T17:06:25.049Z,3.83
2023-04-18T17:08:51.518Z,4.20
2023-04-18T17:11:17.905Z,3.90
2023-04-18T17:13:44.254Z,3.83
2023-04-18T17:16:10.624Z,4.18
2023-04-18T17:18:36.933Z,3.95
2023-04-18T17:21:03.318Z,4.35
2023-04-18T17:23:30.958Z,4.05
2023-04-18T17:25:59.094Z,3.80
2023-04-18T17:28:25.461Z,4.00
2023-04-18T17:30:51.805Z,4.45
2023-04-18T17:33:18.151Z,4.07
2023-04-18T17:35:44.522Z,4.68
2023-04-18T17:38:10.833Z,3.72
2023-04-18T17:40:37.225Z,5.15
2023-04-18T17:43:03.593Z,4.40
2023-04-18T17:45:29.932Z,4.60
2023-04-18T17:47:56.283Z,4.20
2023-04-18T17:50:22.707Z,4.60
2023-04-18T17:52:49.037Z,5.47
2023-04-18T17:55:15.382Z,6.28
2023-04-18T17:57:41.748Z,5.85
2023-04-18T18:00:08.073Z,5.35
2023-04-18T18:02:38.777Z,5.65
2023-04-18T18:05:05.344Z,6.05
2023-04-18T18:07:31.728Z,5.85
2023-04-18T18:09:58.549Z,5.22
2023-04-18T18:12:24.937Z,6.07
2023-04-18T18:14:51.250Z,6.05
2023-04-18T18:17:17.564Z,5.20
2023-04-18T18:19:43.925Z,5.50
2023-04-18T18:22:10.264Z,5.60
2023-04-18T18:24:36.593Z,6.05
2023-04-18T18:27:02.967Z,7.13
2023-04-18T18:29:29.276Z,7.00
2023-04-18T18:31:55.588Z,8.85
2023-04-18T18:34:21.968Z,6.78
2023-04-18T18:36:48.361Z,6.40
2023-04-18T18:39:14.965Z,8.15
2023-04-18T18:41:41.474Z,8.80
2023-04-18T18:44:07.796Z,7.95
2023-04-18T18:46:34.174Z,8.63
2023-04-18T18:49:00.612Z,9.63
2023-04-18T18:51:26.959Z,9.00
2023-04-18T18:53:53.344Z,8.10
2023-04-18T18:56:19.889Z,8.52
2023-04-18T18:58:46.231Z,10.15
2023-04-18T19:01:12.548Z,8.70
2023-04-18T19:03:39.099Z,9.77
2023-04-18T19:06:05.575Z,8.13
2023-04-18T19:08:31.949Z,8.15
2023-04-18T19:10:58.315Z,9.60
2023-04-18T19:13:24.641Z,10.68
2023-04-18T19:15:51.002Z,9.00
2023-04-18T19:18:17.486Z,10.68
2023-04-18T19:20:43.881Z,10.45
2023-04-18T19:23:10.205Z,10.00
2023-04-18T19:25:36.581Z,9.50
2023-04-18T19:28:02.921Z,8.82
2023-04-18T19:30:29.300Z,9.63
2023-04-18T19:32:55.721Z,10.85
2023-04-18T19:35:22.090Z,9.52
2023-04-18T19:37:48.486Z,8.07
2023-04-18T19:40:14.858Z,11.77
2023-04-18T19:42:41.184Z,10.40
2023-04-18T19:45:07.545Z,12.35
2023-04-18T19:47:34.034Z,9.27
2023-04-18T19:50:00.432Z,9.82
2023-04-18T19:52:26.779Z,11.23
2023-04-18T19:54:53.134Z,10.05
2023-04-18T19:57:19.489Z,10.55
2023-04-18T19:59:45.859Z,10.75
2023-04-18T20:02:12.277Z,9.60
2023-04-18T20:04:38.764Z,10.13
2023-04-18T20:07:05.297Z,13.18
2023-04-18T20:09:31.668Z,10.82
2023-04-18T20:11:57.998Z,9.60
2023-04-18T20:14:24.323Z,9.80
2023-04-18T20:16:50.783Z,10.35
2023-04-18T20:19:17.448Z,10.13
2023-04-18T20:21:44.040Z,9.00
2023-04-18T20:24:10.402Z,10.10
2023-04-18T20:26:36.732Z,10.90
2023-04-18T20:29:03.097Z,13.02
2023-04-18T20:31:29.481Z,9.70
2023-04-18T20:33:55.798Z,13.23
2023-04-18T20:36:22.125Z,9.75
2023-04-18T20:38:48.484Z,10.13
2023-04-18T20:41:14.873Z,12.77
2023-04-18T20:43:41.221Z,10.18
2023-04-18T20:46:07.594Z,11.75
2023-04-18T20:48:33.990Z,10.48
2023-04-18T20:51:00.406Z,9.25
2023-04-18T20:53:26.816Z,11.13
2023-04-18T20:55:53.138Z,9.30
2023-04-18T20:58:19.469Z,9.98
2023-04-18T21:00:45.934Z,9.02
2023-04-18T21:03:12.401Z,10.23
2023-04-18T21:05:38.826Z,10.50
2023-04-18T21:08:05.224Z,9.60
2023-04-18T21:10:31.575Z,8.75
2023-04-18T21:12:57.934Z,10.88
2023-04-18T21:15:24.417Z,10.07
2023-04-18T21:17:50.823Z,10.07
2023-04-18T21:20:17.219Z,9.30
2023-04-18T21:22:43.578Z,9.52
2023-04-18T21:25:09.929Z,9.88
2023-04-18T21:27:36.269Z,10.48
2023-04-18T21:30:04.680Z,11.90
2023-04-18T21:32:31.346Z,9.10
2023-04-18T21:34:57.654Z,8.80
2023-04-18T21:37:24.015Z,9.65
2023-04-18T21:39:50.344Z,9.30
2023-04-18T21:42:16.871Z,9.07
2023-04-18T21:44:43.267Z,9.45
2023-04-18T21:47:09.581Z,9.38
2023-04-18T21:49:35.897Z,10.48
2023-04-18T21:52:02.279Z,9.68
2023-04-18T21:54:28.601Z,8.55
2023-04-18T21:56:55.065Z,9.07
2023-04-18T21:59:21.477Z,8.27
2023-04-18T22:01:47.801Z,9.25
2023-04-18T22:04:14.422Z,9.95
2023-04-18T22:06:41.322Z,10.23
2023-04-18T22:09:07.653Z,9.45
2023-04-18T22:11:33.976Z,8.63
2023-04-18T22:14:00.328Z,8.73
2023-04-18T22:16:26.694Z,9.18
2023-04-18T22:18:53.173Z,8.52
2023-04-18T22:21:19.633Z,9.32
2023-04-18T22:23:45.958Z,7.82
2023-04-18T22:26:12.320Z,7.53
2023-04-18T22:28:38.692Z,8.63
2023-04-18T22:31:05.311Z,9.50
2023-04-18T22:33:31.736Z,7.75
2023-04-18T22:35:58.154Z,8.07
2023-04-18T22:38:24.533Z,9.00
2023-04-18T22:40:50.902Z,8.98
2023-04-18T22:43:17.299Z,7.78
2023-04-18T22:45:43.669Z,9.15
2023-04-18T22:48:10.063Z,8.27
2023-04-18T22:50:36.472Z,8.55
2023-04-18T22:53:02.795Z,8.60
2023-04-18T22:55:29.092Z,8.20
2023-04-18T22:57:55.457Z,8.27
2023-04-18T23:00:21.781Z,7.90
2023-04-18T23:02:48.342Z,8.23
2023-04-18T23:05:14.861Z,8.60
2023-04-18T23:07:41.169Z,7.65
2023-04-18T23:10:07.525Z,8.13
2023-04-18T23:12:34.020Z,8.52
2023-04-18T23:15:00.381Z,7.47
2023-04-18T23:17:26.772Z,8.57
2023-04-18T23:19:53.168Z,9.98
2023-04-18T23:22:19.665Z,7.30
2023-04-18T23:24:46.110Z,7.80
2023-04-18T23:27:12.590Z,8.50
2023-04-18T23:29:38.934Z,7.65
2023-04-18T23:32:05.383Z,8.57
2023-04-18T23:34:31.816Z,8.38
2023-04-18T23:36:58.147Z,8.85
2023-04-18T23:39:24.467Z,8.73
2023-04-18T23:41:50.819Z,10.88
2023-04-18T23:44:17.135Z,8.57
2023-04-18T23:46:43.513Z,10.55
2023-04-18T23:49:09.891Z,9.00
2023-04-18T23:51:36.226Z,8.43
2023-04-18T23:54:02.579Z,10.27
2023-04-18T23:56:28.967Z,9.70
2023-04-18T23:58:55.282Z,11.23
